Time;durP1;ratioP1;P1;durP2;ratioP2;P2;SDS_P1;SDS_P2;PMS_P1;PMS_P2;Temp;Humidity;BMP_temperature;BMP_pressure;BME280_temperature;BME280_humidity;BME280_pressure;Samples;Min_cycle;Max_cycle;Signal;HPM_P1;HPM_P2
2023/07/14 00:00:32;;;;;;;1.10;0.70;;;27.90;44.60;;;;;;4979017;28;20478;-65
2023/07/14 00:03:00;;;;;;;0.63;0.63;;;27.90;44.60;;;;;;4979391;28;20031;-65
2023/07/14 00:05:32;;;;;;;1.33;0.70;;;27.90;44.60;;;;;;4981241;28;20039;-64
2023/07/14 00:07:58;;;;;;;0.93;0.75;;;27.90;44.60;;;;;;4968868;28;20117;-64
2023/07/14 00:10:30;;;;;;;1.85;0.80;;;27.90;44.60;;;;;;4980939;28;20467;-65
2023/07/14 00:13:04;;;;;;;0.73;0.70;;;27.90;44.70;;;;;;4969970;28;20358;-64
2023/07/14 00:15:35;;;;;;;1.77;0.70;;;27.90;44.70;;;;;;4979346;28;20080;-64
2023/07/14 00:18:24;;;;;;;1.80;1.00;;;27.90;44.70;;;;;;4978250;28;20033;-64
2023/07/14 00:20:50;;;;;;;0.90;0.70;;;27.80;44.70;;;;;;4970716;28;20026;-64
2023/07/14 00:23:16;;;;;;;0.70;0.70;;;27.90;44.80;;;;;;4963791;28;20038;-64
2023/07/14 00:25:42;;;;;;;1.17;0.77;;;27.80;44.70;;;;;;4979431;28;20030;-64
2023/07/14 00:28:19;;;;;;;0.98;0.80;;;27.80;44.80;;;;;;4980101;28;20093;-64
2023/07/14 00:30:47;;;;;;;0.98;0.65;;;27.80;44.80;;;;;;4981591;28;20125;-65
2023/07/14 00:33:15;;;;;;;0.85;0.70;;;27.80;44.80;;;;;;4964740;28;20067;-64
2023/07/14 00:35:41;;;;;;;0.95;0.70;;;27.80;44.90;;;;;;4982767;28;20169;-64
2023/07/14 00:38:08;;;;;;;1.35;0.70;;;27.80;44.90;;;;;;4979729;28;20485;-64
2023/07/14 00:40:44;;;;;;;1.00;0.70;;;27.80;44.90;;;;;;4961912;28;20049;-64
2023/07/14 00:43:18;;;;;;;1.02;0.73;;;27.80;44.90;;;;;;4979836;28;20125;-64
2023/07/14 00:45:46;;;;;;;1.05;0.70;;;27.80;44.90;;;;;;4979362;28;20363;-64
2023/07/14 00:48:15;;;;;;;1.27;0.80;;;27.70;44.90;;;;;;4978243;28;20324;-65
2023/07/14 00:50:46;;;;;;;1.02;0.80;;;27.80;45.00;;;;;;4978379;28;20479;-64
2023/07/14 00:53:19;;;;;;;0.90;0.80;;;27.70;44.90;;;;;;4980131;28;20038;-64
2023/07/14 00:55:50;;;;;;;0.68;0.60;;;27.70;45.00;;;;;;4980825;28;20023;-64
2023/07/14 00:58:22;;;;;;;0.70;0.63;;;27.70;45.00;;;;;;4980933;28;20015;-64
2023/07/14 01:01:04;;;;;;;0.65;0.60;;;27.70;45.00;;;;;;4969865;28;20027;-64
2023/07/14 01:03:30;;;;;;;1.02;0.77;;;27.70;45.00;;;;;;4961624;28;20118;-64
2023/07/14 01:05:58;;;;;;;0.70;0.70;;;27.70;45.00;;;;;;4980284;28;20038;-65
2023/07/14 01:08:25;;;;;;;1.85;0.73;;;27.70;45.10;;;;;;4979721;28;20029;-65
2023/07/14 01:10:51;;;;;;;0.93;0.70;;;27.70;45.10;;;;;;4978847;28;20034;-65
2023/07/14 01:13:18;;;;;;;0.82;0.75;;;27.70;45.10;;;;;;4978896;28;20525;-64
2023/07/14 01:15:43;;;;;;;0.85;0.70;;;27.70;45.10;;;;;;4978557;28;20044;-64
2023/07/14 01:18:11;;;;;;;0.80;0.70;;;27.70;45.20;;;;;;4979310;28;20026;-64
2023/07/14 01:20:38;;;;;;;0.77;0.70;;;27.70;45.10;;;;;;4961102;28;20172;-64
2023/07/14 01:23:31;;;;;;;0.60;0.60;;;27.70;45.20;;;;;;4980711;28;20121;-65
2023/07/14 01:26:14;;;;;;;0.80;0.80;;;27.70;45.20;;;;;;4978558;28;20450;-65
2023/07/14 01:28:41;;;;;;;1.25;0.60;;;27.70;45.20;;;;;;4978397;28;20041;-65
2023/07/14 01:31:15;;;;;;;0.88;0.70;;;27.70;45.30;;;;;;4978984;28;20498;-64
2023/07/14 01:33:41;;;;;;;0.98;0.75;;;27.60;45.20;;;;;;4967539;28;20034;-64
2023/07/14 01:36:07;;;;;;;0.95;0.70;;;27.60;45.20;;;;;;4964558;28;20485;-64
2023/07/14 01:38:33;;;;;;;1.25;0.75;;;27.60;45.20;;;;;;4978229;28;20862;-65
2023/07/14 01:40:58;;;;;;;0.80;0.70;;;27.60;45.30;;;;;;4980059;28;20089;-64
2023/07/14 01:43:24;;;;;;;1.20;0.88;;;27.60;45.30;;;;;;4979872;28;20030;-64
2023/07/14 01:45:52;;;;;;;1.20;0.70;;;27.60;45.30;;;;;;4977464;28;20045;-64
2023/07/14 01:48:24;;;;;;;0.90;0.80;;;27.60;45.30;;;;;;4979427;28;20023;-65
2023/07/14 01:50:55;;;;;;;0.75;0.70;;;27.60;45.30;;;;;;4979045;28;20034;-64
2023/07/14 01:53:30;;;;;;;0.90;0.70;;;27.60;45.30;;;;;;4978710;28;20122;-63
2023/07/14 01:55:59;;;;;;;0.90;0.70;;;27.60;45.90;;;;;;4980059;28;20109;-65
2023/07/14 01:58:33;;;;;;;1.13;0.80;;;27.60;45.30;;;;;;4978713;28;20133;-66
2023/07/14 02:01:01;;;;;;;0.90;0.70;;;27.60;45.30;;;;;;4979413;28;20048;-64
2023/07/14 02:03:36;;;;;;;0.80;0.70;;;27.60;45.40;;;;;;4975116;28;20437;-65
2023/07/14 02:06:02;;;;;;;0.85;0.70;;;27.60;45.40;;;;;;4979137;28;20041;-65
2023/07/14 02:08:28;;;;;;;0.70;0.70;;;27.60;45.90;;;;;;4979603;28;20031;-64
2023/07/14 02:10:53;;;;;;;1.20;0.63;;;27.60;45.40;;;;;;4964772;28;20022;-65
2023/07/14 02:13:21;;;;;;;0.80;0.60;;;27.50;45.40;;;;;;4965800;28;20037;-65
2023/07/14 02:15:48;;;;;;;1.10;0.68;;;27.50;45.40;;;;;;4968412;28;20018;-65
2023/07/14 02:18:18;;;;;;;0.82;0.60;;;27.50;45.40;;;;;;4978123;28;20031;-65
2023/07/14 02:20:47;;;;;;;0.98;0.70;;;27.50;45.40;;;;;;4977901;28;20119;-65
2023/07/14 02:23:16;;;;;;;0.70;0.70;;;27.50;45.40;;;;;;4968781;28;20057;-65
2023/07/14 02:25:44;;;;;;;;;;;27.50;45.40;;;;;;4983562;28;20648;-65
2023/07/14 02:28:10;;;;;;;1.15;0.68;;;27.50;45.40;;;;;;4980961;28;19916;-65
2023/07/14 02:30:38;;;;;;;0.60;0.60;;;27.50;46.00;;;;;;4981917;28;20050;-64
2023/07/14 02:33:29;;;;;;;0.88;0.80;;;27.50;45.40;;;;;;4983400;28;20030;-65
2023/07/14 02:36:29;;;;;;;0.70;0.70;;;27.50;45.40;;;;;;4960981;28;20399;-64
2023/07/14 02:38:55;;;;;;;0.73;0.70;;;27.50;45.50;;;;;;4980933;28;20383;-64
2023/07/14 02:41:29;;;;;;;0.98;0.70;;;27.50;45.50;;;;;;4981635;28;20034;-65
2023/07/14 02:44:00;;;;;;;0.98;0.80;;;27.50;45.50;;;;;;4981322;28;20112;-65
2023/07/14 02:46:49;;;;;;;0.90;0.70;;;27.50;45.50;;;;;;4983151;28;20030;-65
2023/07/14 02:49:15;;;;;;;0.82;0.63;;;27.50;45.50;;;;;;4980370;28;20390;-64
2023/07/14 02:51:41;;;;;;;1.35;0.70;;;27.50;45.50;;;;;;4980402;28;20026;-64
2023/07/14 02:54:07;;;;;;;0.70;0.70;;;27.50;45.50;;;;;;4979743;28;20038;-65
2023/07/14 02:56:33;;;;;;;0.60;0.60;;;27.50;45.50;;;;;;4982250;28;20509;-64
2023/07/14 02:59:00;;;;;;;0.93;0.60;;;27.40;45.50;;;;;;4963452;28;20030;-64
2023/07/14 03:01:27;;;;;;;0.90;0.70;;;27.50;45.60;;;;;;4983081;28;20077;-65
2023/07/14 03:03:53;;;;;;;1.42;0.80;;;27.50;45.50;;;;;;4982144;28;20065;-64
2023/07/14 03:06:20;;;;;;;0.60;0.60;;;27.40;45.50;;;;;;4981729;28;20131;-64
2023/07/14 03:08:46;;;;;;;0.60;0.60;;;27.40;45.50;;;;;;4980207;28;20140;-64
2023/07/14 03:11:12;;;;;;;0.80;0.65;;;27.40;45.50;;;;;;4973459;28;20058;-64
2023/07/14 03:13:37;;;;;;;0.90;0.63;;;27.40;45.50;;;;;;4982719;28;20471;-64
2023/07/14 03:16:03;;;;;;;0.75;0.60;;;27.40;46.10;;;;;;4981535;28;20026;-64
2023/07/14 03:18:29;;;;;;;0.98;0.70;;;27.40;45.50;;;;;;4983241;28;20053;-63
2023/07/14 03:21:03;;;;;;;0.70;0.70;;;27.40;46.10;;;;;;4980461;28;20501;-65
2023/07/14 03:23:29;;;;;;;1.45;0.70;;;27.40;45.60;;;;;;4971683;28;20061;-64
2023/07/14 03:26:01;;;;;;;1.20;0.63;;;27.40;45.60;;;;;;4964683;28;20038;-64
2023/07/14 03:28:28;;;;;;;0.70;0.63;;;27.40;45.60;;;;;;4981651;28;20042;-64
2023/07/14 03:30:53;;;;;;;0.55;0.55;;;27.40;45.60;;;;;;4979812;28;20435;-63
2023/07/14 03:33:19;;;;;;;0.88;0.70;;;27.40;45.60;;;;;;4979212;28;20097;-63
2023/07/14 03:35:45;;;;;;;0.80;0.70;;;27.40;45.60;;;;;;4977360;28;20030;-64
2023/07/14 03:38:10;;;;;;;0.90;0.70;;;27.40;45.70;;;;;;4980566;28;20395;-65
2023/07/14 03:40:36;;;;;;;0.95;0.60;;;27.40;45.70;;;;;;4963597;28;20108;-63
2023/07/14 03:43:03;;;;;;;1.17;0.70;;;27.40;45.70;;;;;;4981958;28;20703;-63
2023/07/14 03:45:33;;;;;;;1.63;0.95;;;27.40;45.60;;;;;;4981510;28;20027;-63
2023/07/14 03:47:59;;;;;;;2.03;1.10;;;27.40;44.70;;;;;;4979287;28;20097;-63
2023/07/14 03:50:25;;;;;;;2.47;1.20;;;27.30;43.80;;;;;;4978972;28;20038;-63
2023/07/14 03:52:52;;;;;;;1.70;1.00;;;27.40;43.10;;;;;;4980026;28;20609;-64
2023/07/14 03:55:18;;;;;;;2.15;1.08;;;27.30;42.60;;;;;;4980468;28;20030;-63
2023/07/14 03:57:43;;;;;;;1.42;0.90;;;27.30;42.40;;;;;;4981510;28;20031;-64
2023/07/14 04:00:14;;;;;;;2.38;0.98;;;27.30;42.20;;;;;;4978532;28;20023;-63
2023/07/14 04:02:41;;;;;;;2.78;1.00;;;27.30;42.00;;;;;;4981008;28;20022;-64
2023/07/14 04:05:08;;;;;;;1.50;1.00;;;27.20;41.80;;;;;;4978666;28;20613;-64
2023/07/14 04:07:35;;;;;;;2.03;1.08;;;27.20;41.70;;;;;;4981942;28;20414;-64
2023/07/14 04:10:00;;;;;;;2.80;0.90;;;27.20;41.70;;;;;;4977945;28;20031;-64
2023/07/14 04:12:26;;;;;;;1.85;0.90;;;27.10;41.60;;;;;;4981361;28;20374;-63
2023/07/14 04:14:52;;;;;;;1.52;0.93;;;27.10;41.70;;;;;;4978713;28;20026;-63
2023/07/14 04:17:17;;;;;;;1.92;0.95;;;27.10;41.80;;;;;;4978706;28;20554;-64
2023/07/14 04:19:43;;;;;;;1.95;1.30;;;27.10;42.00;;;;;;4977452;28;20499;-64
2023/07/14 04:22:09;;;;;;;2.60;1.20;;;27.00;42.00;;;;;;4980565;28;20022;-63
2023/07/14 04:24:35;;;;;;;1.50;1.00;;;27.00;41.90;;;;;;4979103;28;20044;-63
2023/07/14 04:27:00;;;;;;;1.67;1.00;;;27.00;41.80;;;;;;4981393;28;20406;-64
2023/07/14 04:29:26;;;;;;;2.83;0.85;;;26.90;41.70;;;;;;4980062;28;20088;-64
2023/07/14 04:31:52;;;;;;;1.55;0.90;;;27.00;41.80;;;;;;4978329;28;20518;-64
2023/07/14 04:34:17;;;;;;;1.33;0.90;;;26.90;41.80;;;;;;4978070;28;20030;-64
2023/07/14 04:36:44;;;;;;;1.55;1.02;;;26.90;41.80;;;;;;4977356;28;20045;-63
2023/07/14 04:39:11;;;;;;;1.92;1.00;;;26.90;41.80;;;;;;4961555;28;20118;-63
2023/07/14 04:41:37;;;;;;;1.42;0.80;;;26.80;41.80;;;;;;4981527;28;20472;-64
2023/07/14 04:44:08;;;;;;;1.45;1.00;;;26.80;41.80;;;;;;4980155;28;20081;-64
2023/07/14 04:46:34;;;;;;;1.80;1.00;;;26.80;41.90;;;;;;4982984;28;20022;-63
2023/07/14 04:49:00;;;;;;;1.80;1.00;;;26.70;42.00;;;;;;4978629;28;20039;-63
2023/07/14 04:51:26;;;;;;;3.20;1.10;;;26.70;42.10;;;;;;4967992;28;20102;-64
2023/07/14 04:53:52;;;;;;;2.55;1.38;;;26.70;42.40;;;;;;4979516;28;20498;-63
2023/07/14 04:56:19;;;;;;;2.42;1.30;;;26.70;42.60;;;;;;4965085;28;20030;-64
2023/07/14 04:58:45;;;;;;;3.08;1.33;;;26.70;42.80;;;;;;4964021;28;20036;-64
2023/07/14 05:01:11;;;;;;;3.97;1.40;;;26.60;42.80;;;;;;4980014;28;20022;-64
2023/07/14 05:03:37;;;;;;;2.67;1.17;;;26.60;43.00;;;;;;4979946;28;20132;-63
2023/07/14 05:06:02;;;;;;;3.20;1.30;;;26.60;43.20;;;;;;4961813;28;20110;-64
2023/07/14 05:08:28;;;;;;;2.97;1.45;;;26.60;43.30;;;;;;4975010;28;20031;-63
2023/07/14 05:10:54;;;;;;;1.27;0.90;;;26.60;43.50;;;;;;4978455;28;20034;-63
2023/07/14 05:13:19;;;;;;;2.35;1.08;;;26.50;43.40;;;;;;4978814;28;20034;-63
2023/07/14 05:15:45;;;;;;;2.33;0.95;;;26.50;43.50;;;;;;4965291;28;20031;-64
2023/07/14 05:18:12;;;;;;;2.60;1.23;;;26.50;43.70;;;;;;4979801;28;20041;-64
2023/07/14 05:20:39;;;;;;;2.08;0.90;;;26.50;44.40;;;;;;4976518;28;20053;-64
2023/07/14 05:23:04;;;;;;;3.83;1.35;;;26.50;44.00;;;;;;4979212;28;20098;-64
2023/07/14 05:25:30;;;;;;;4.28;1.88;;;26.50;44.30;;;;;;4979510;28;20046;-64
2023/07/14 05:27:56;;;;;;;5.03;2.05;;;26.40;44.50;;;;;;4979651;28;20084;-64
2023/07/14 05:30:22;;;;;;;4.28;1.65;;;26.40;45.00;;;;;;4979553;28;20034;-64
2023/07/14 05:32:49;;;;;;;3.83;1.40;;;26.40;44.90;;;;;;4979557;28;20355;-64
2023/07/14 05:35:17;;;;;;;3.72;1.50;;;26.40;44.90;;;;;;4964531;28;20030;-64
2023/07/14 05:37:43;;;;;;;4.28;1.50;;;26.30;44.90;;;;;;4979338;28;20098;-64
2023/07/14 05:40:12;;;;;;;5.05;1.60;;;26.30;44.90;;;;;;4978234;28;20505;-64
2023/07/14 05:42:39;;;;;;;3.55;1.40;;;26.30;45.00;;;;;;4977886;28;20086;-64
2023/07/14 05:45:05;;;;;;;5.18;1.60;;;26.30;45.00;;;;;;4978301;28;20554;-64
2023/07/14 05:47:34;;;;;;;4.72;1.80;;;26.30;45.00;;;;;;4976383;28;20035;-64
2023/07/14 05:50:00;;;;;;;4.15;1.58;;;26.30;45.00;;;;;;4978283;28;20502;-68
2023/07/14 05:52:26;;;;;;;4.95;1.88;;;26.30;45.00;;;;;;4978046;28;20034;-68
2023/07/14 05:54:51;;;;;;;4.13;1.90;;;26.30;45.00;;;;;;4980775;28;20026;-69
2023/07/14 05:57:17;;;;;;;3.47;1.40;;;26.30;45.00;;;;;;4979759;28;20022;-68
2023/07/14 05:59:43;;;;;;;3.53;1.60;;;26.30;45.00;;;;;;4968763;28;20030;-68
2023/07/14 06:02:14;;;;;;;3.40;1.55;;;26.30;45.00;;;;;;4984549;28;20027;-68
2023/07/14 06:04:40;;;;;;;6.00;1.80;;;26.30;45.00;;;;;;4984830;28;20023;-68
2023/07/14 06:07:06;;;;;;;4.05;1.67;;;26.30;45.00;;;;;;4984011;28;20089;-68
2023/07/14 06:09:37;;;;;;;3.63;1.40;;;26.30;45.00;;;;;;4985507;28;20097;-68
2023/07/14 06:12:05;;;;;;;3.45;1.40;;;26.30;45.00;;;;;;4970894;28;20141;-68
2023/07/14 06:14:32;;;;;;;4.38;1.60;;;26.30;45.00;;;;;;4983471;28;20070;-68
2023/07/14 06:16:58;;;;;;;2.70;1.40;;;26.30;45.00;;;;;;4985390;28;20038;-69
2023/07/14 06:19:24;;;;;;;3.35;1.50;;;26.30;45.60;;;;;;4984715;28;20050;-68
2023/07/14 06:21:50;;;;;;;3.90;1.60;;;26.30;45.10;;;;;;4982612;28;20535;-69
2023/07/14 06:24:16;;;;;;;2.83;1.40;;;26.30;45.10;;;;;;4984209;28;20109;-68
2023/07/14 06:26:41;;;;;;;3.67;1.52;;;26.30;45.10;;;;;;4969851;28;20038;-68
2023/07/14 06:29:07;;;;;;;3.35;1.58;;;26.30;45.10;;;;;;4984320;28;20035;-68
2023/07/14 06:31:33;;;;;;;3.28;1.40;;;26.30;45.10;;;;;;4984207;28;20526;-68
2023/07/14 06:33:59;;;;;;;4.35;1.70;;;26.30;45.10;;;;;;4974344;28;20470;-69
2023/07/14 06:36:24;;;;;;;4.22;1.67;;;26.30;45.10;;;;;;4967151;28;20058;-68
2023/07/14 06:38:50;;;;;;;3.42;1.55;;;26.30;45.10;;;;;;4984744;28;20105;-68
2023/07/14 06:41:17;;;;;;;3.72;1.50;;;26.30;45.10;;;;;;4985376;28;20432;-69
2023/07/14 06:43:43;;;;;;;2.83;1.60;;;26.30;45.10;;;;;;4971795;28;20112;-69
2023/07/14 06:46:08;;;;;;;3.67;1.40;;;26.30;45.10;;;;;;4969182;28;20066;-68
2023/07/14 06:48:34;;;;;;;4.18;1.52;;;26.30;45.10;;;;;;4982778;28;20106;-68
2023/07/14 06:50:59;;;;;;;3.42;1.50;;;26.30;45.10;;;;;;4983790;28;20066;-69
2023/07/14 06:53:26;;;;;;;3.45;1.40;;;26.30;45.20;;;;;;4983282;28;20049;-68
2023/07/14 06:55:52;;;;;;;2.60;1.38;;;26.30;45.10;;;;;;4984195;28;20112;-68
2023/07/14 06:58:17;;;;;;;2.63;1.33;;;26.30;45.20;;;;;;4969912;28;20202;-69
2023/07/14 07:00:43;;;;;;;2.90;1.30;;;26.30;45.10;;;;;;4984124;28;20105;-68
2023/07/14 07:03:09;;;;;;;2.63;1.23;;;26.30;45.20;;;;;;4984524;28;20034;-68
2023/07/14 07:05:39;;;;;;;2.22;1.27;;;26.30;45.20;;;;;;4984353;28;20446;-68
2023/07/14 07:08:09;;;;;;;2.22;1.30;;;26.30;45.20;;;;;;4982564;28;20375;-68
2023/07/14 07:10:34;;;;;;;;;;;26.30;45.20;;;;;;4983105;28;20038;-68
2023/07/14 07:13:00;;;;;;;3.00;1.60;;;26.30;45.20;;;;;;4982967;28;19939;-68
2023/07/14 07:15:26;;;;;;;3.22;1.35;;;26.30;45.20;;;;;;4981862;28;20045;-69
2023/07/14 07:17:51;;;;;;;3.50;1.70;;;26.30;45.20;;;;;;4982313;28;20026;-68
2023/07/14 07:20:17;;;;;;;4.43;1.48;;;26.30;45.30;;;;;;4980980;28;20069;-68
2023/07/14 07:22:45;;;;;;;2.63;1.40;;;26.30;45.30;;;;;;4979193;28;20490;-68
2023/07/14 07:25:10;;;;;;;3.30;1.40;;;26.30;45.30;;;;;;4981027;28;20427;-68
2023/07/14 07:27:36;;;;;;;2.08;1.20;;;26.30;45.30;;;;;;4979203;28;20104;-68
2023/07/14 07:30:03;;;;;;;2.33;1.52;;;26.30;45.30;;;;;;4964490;28;20721;-69
2023/07/14 07:32:29;;;;;;;3.13;1.55;;;26.30;45.30;;;;;;4980637;28;20438;-68
2023/07/14 07:34:59;;;;;;;2.58;1.30;;;26.30;45.30;;;;;;4965569;28;20031;-68
2023/07/14 07:37:25;;;;;;;2.03;1.23;;;26.30;45.30;;;;;;4980727;28;20038;-68
2023/07/14 07:39:53;;;;;;;2.72;1.40;;;26.30;45.40;;;;;;4981515;28;20045;-68
2023/07/14 07:42:19;;;;;;;2.38;1.23;;;26.30;45.30;;;;;;4980415;28;20078;-68
2023/07/14 07:44:45;;;;;;;2.60;1.20;;;26.30;45.30;;;;;;4981318;28;20031;-69
2023/07/14 07:47:12;;;;;;;2.72;1.30;;;26.30;45.40;;;;;;4978091;28;20387;-68
2023/07/14 07:49:38;;;;;;;2.40;1.30;;;26.30;45.40;;;;;;4980639;28;20026;-68
2023/07/14 07:52:04;;;;;;;1.92;1.23;;;26.30;45.40;;;;;;4970037;28;20027;-69
2023/07/14 07:54:30;;;;;;;1.98;1.20;;;26.30;45.40;;;;;;4980836;28;20486;-68
2023/07/14 07:56:56;;;;;;;2.45;1.50;;;26.30;45.40;;;;;;4979914;28;20026;-68
2023/07/14 07:59:21;;;;;;;2.47;1.30;;;26.30;45.40;;;;;;4981103;28;20142;-68
2023/07/14 08:01:47;;;;;;;2.85;1.38;;;26.30;45.40;;;;;;4982127;28;20125;-67
2023/07/14 08:04:13;;;;;;;2.25;1.15;;;26.30;45.40;;;;;;4979245;28;20050;-64
2023/07/14 08:06:39;;;;;;;2.38;1.13;;;26.30;45.50;;;;;;4978245;28;20150;-64
2023/07/14 08:09:06;;;;;;;1.85;1.08;;;26.30;45.50;;;;;;4979663;28;20047;-64
2023/07/14 08:11:33;;;;;;;2.45;1.23;;;26.30;45.50;;;;;;4980317;28;20530;-64
2023/07/14 08:14:01;;;;;;;2.67;1.20;;;26.30;45.50;;;;;;4979325;28;20493;-63
2023/07/14 08:16:27;;;;;;;2.03;1.17;;;26.30;45.50;;;;;;4980761;28;20022;-63
2023/07/14 08:18:53;;;;;;;2.97;1.25;;;26.30;45.50;;;;;;4980702;28;20359;-63
2023/07/14 08:21:18;;;;;;;2.30;1.08;;;26.30;45.50;;;;;;4965954;28;20027;-63
2023/07/14 08:23:44;;;;;;;2.60;1.27;;;26.30;45.50;;;;;;4978166;28;20038;-63
2023/07/14 08:26:10;;;;;;;2.63;1.20;;;26.30;45.60;;;;;;4980660;28;20100;-63
2023/07/14 08:28:36;;;;;;;1.80;1.20;;;26.30;45.60;;;;;;4980811;28;20561;-63
2023/07/14 08:31:04;;;;;;;1.88;1.20;;;26.30;45.60;;;;;;4979190;28;20050;-63
2023/07/14 08:33:31;;;;;;;2.28;1.20;;;26.30;45.60;;;;;;4980591;28;20506;-63
2023/07/14 08:36:00;;;;;;;1.90;1.20;;;26.30;45.60;;;;;;4979346;28;20034;-63
2023/07/14 08:38:27;;;;;;;;;;;26.30;45.60;;;;;;4980259;28;20026;-63
2023/07/14 08:40:57;;;;;;;2.30;1.13;;;26.30;45.60;;;;;;4979882;28;20278;-63
2023/07/14 08:44:02;;;;;;;2.20;1.10;;;26.30;45.60;;;;;;4981775;28;20026;-63
2023/07/14 08:46:49;;;;;;;2.20;1.10;;;26.30;45.60;;;;;;4957733;28;20042;-63
2023/07/14 08:49:30;;;;;;;1.85;1.10;;;26.30;45.70;;;;;;4963499;28;20117;-63
2023/07/14 08:52:05;;;;;;;1.63;1.15;;;26.30;45.70;;;;;;4976214;28;20354;-63
2023/07/14 08:55:09;;;;;;;1.85;1.10;;;26.30;45.70;;;;;;4978977;28;20150;-63
2023/07/14 08:57:48;;;;;;;1.70;0.98;;;26.30;45.70;;;;;;4981350;28;20030;-63
2023/07/14 09:00:22;;;;;;;2.08;1.20;;;26.30;45.70;;;;;;4978225;28;20038;-63
2023/07/14 09:03:05;;;;;;;1.75;1.10;;;26.30;45.70;;;;;;4978509;28;20031;-63
2023/07/14 09:05:34;;;;;;;1.85;1.05;;;26.30;45.70;;;;;;4978758;28;20498;-63
2023/07/14 09:08:00;;;;;;;2.58;1.30;;;26.30;45.70;;;;;;4978151;28;20023;-63
2023/07/14 09:10:42;;;;;;;2.40;1.20;;;26.30;45.70;;;;;;4980514;28;20043;-63
2023/07/14 09:13:45;;;;;;;1.85;1.20;;;26.30;45.70;;;;;;4982410;28;20045;-63
2023/07/14 09:16:12;;;;;;;1.20;0.90;;;26.30;45.70;;;;;;4960920;28;20393;-63
2023/07/14 09:18:43;;;;;;;2.05;1.00;;;26.30;45.70;;;;;;4978475;28;20042;-63
2023/07/14 09:21:27;;;;;;;1.80;1.13;;;26.30;45.80;;;;;;4979086;28;20034;-62
2023/07/14 09:24:11;;;;;;;2.03;1.23;;;26.30;45.70;;;;;;4978058;28;20538;-63
2023/07/14 09:26:41;;;;;;;1.50;1.00;;;26.30;45.70;;;;;;4978893;28;20042;-63
2023/07/14 09:29:12;;;;;;;2.08;1.10;;;26.30;45.80;;;;;;4979859;28;20031;-63
2023/07/14 09:31:44;;;;;;;1.73;1.20;;;26.30;45.80;;;;;;4978327;28;20053;-63
2023/07/14 09:34:38;;;;;;;1.77;1.02;;;26.30;45.80;;;;;;4962460;28;20034;-63
2023/07/14 09:37:20;;;;;;;1.70;1.08;;;26.30;45.80;;;;;;4969323;28;20068;-63
2023/07/14 09:39:51;;;;;;;1.77;1.20;;;26.30;45.80;;;;;;4979138;28;20500;-63
2023/07/14 09:42:25;;;;;;;1.67;1.20;;;26.30;45.80;;;;;;4978409;28;20495;-64
2023/07/14 09:44:58;;;;;;;1.30;0.95;;;26.30;45.80;;;;;;4962721;28;20828;-63
2023/07/14 09:47:25;;;;;;;2.60;0.93;;;26.30;45.80;;;;;;4962282;28;20037;-63
2023/07/14 09:49:57;;;;;;;2.05;1.00;;;26.30;45.80;;;;;;4978036;28;20027;-63
2023/07/14 09:52:27;;;;;;;2.55;1.17;;;26.30;45.80;;;;;;4975877;28;20815;-63
2023/07/14 09:54:58;;;;;;;1.38;0.90;;;26.30;45.80;;;;;;4978744;28;20072;-63
2023/07/14 09:57:30;;;;;;;1.67;0.90;;;26.30;45.80;;;;;;4978694;28;20430;-64
2023/07/14 10:00:14;;;;;;;2.13;1.10;;;26.30;45.80;;;;;;4980367;28;20031;-63
2023/07/14 10:02:41;;;;;;;1.88;1.02;;;26.30;45.80;;;;;;4977840;28;20386;-65
2023/07/14 10:05:34;;;;;;;1.92;1.10;;;26.30;45.80;;;;;;4979194;28;20034;-63
2023/07/14 10:08:03;;;;;;;1.95;1.10;;;26.30;45.80;;;;;;4967837;28;20205;-63
2023/07/14 10:10:30;;;;;;;1.95;0.90;;;26.30;45.80;;;;;;4963434;28;20045;-63
2023/07/14 10:12:56;;;;;;;2.13;1.20;;;26.30;45.80;;;;;;4978161;28;20538;-63
2023/07/14 10:15:33;;;;;;;1.70;1.10;;;26.30;45.90;;;;;;4978080;28;20106;-62
2023/07/14 10:18:03;;;;;;;1.70;1.00;;;26.30;45.90;;;;;;4978901;28;20074;-63
2023/07/14 10:20:29;;;;;;;2.13;1.00;;;26.30;45.90;;;;;;4976309;28;20035;-63
2023/07/14 10:22:58;;;;;;;1.63;1.05;;;26.30;45.90;;;;;;4962166;28;20189;-63
2023/07/14 10:25:26;;;;;;;1.60;1.00;;;26.30;45.90;;;;;;4978144;28;20069;-63
2023/07/14 10:28:10;;;;;;;1.60;1.00;;;26.30;45.90;;;;;;4979794;28;20097;-63
2023/07/14 10:30:36;;;;;;;1.55;1.00;;;26.30;45.90;;;;;;4969463;28;20478;-63
2023/07/14 10:33:03;;;;;;;2.00;1.00;;;26.30;45.90;;;;;;4964035;28;20185;-63
2023/07/14 10:35:35;;;;;;;1.27;0.95;;;26.30;45.90;;;;;;4961022;28;20031;-63
2023/07/14 10:38:19;;;;;;;1.75;0.98;;;26.30;45.90;;;;;;4976827;28;20026;-63
2023/07/14 10:40:58;;;;;;;2.40;1.08;;;26.30;45.90;;;;;;4977359;28;20031;-63
2023/07/14 10:43:33;;;;;;;;;;;26.30;45.90;;;;;;4976817;28;20113;-63
2023/07/14 10:46:04;;;;;;;1.67;1.02;;;26.30;45.90;;;;;;4978833;28;20409;-63
2023/07/14 10:48:36;;;;;;;1.90;1.00;;;26.30;45.90;;;;;;4985482;28;20463;-63
2023/07/14 10:51:17;;;;;;;1.60;1.00;;;26.30;45.90;;;;;;4960688;28;20070;-63
2023/07/14 10:53:49;;;;;;;1.23;0.80;;;26.30;46.40;;;;;;4977503;28;20785;-63
2023/07/14 10:56:22;;;;;;;1.20;0.90;;;26.30;45.90;;;;;;4980637;28;20014;-63
2023/07/14 10:58:58;;;;;;;1.08;0.80;;;26.30;46.00;;;;;;4973578;28;20178;-63
2023/07/14 11:02:02;;;;;;;1.33;0.88;;;26.30;46.00;;;;;;4970540;28;20041;-63
2023/07/14 11:04:40;;;;;;;1.45;1.00;;;26.30;46.00;;;;;;4929629;28;20040;-63
2023/07/14 11:07:14;;;;;;;1.50;0.90;;;26.30;46.00;;;;;;4978946;28;20536;-63
2023/07/14 11:09:40;;;;;;;1.60;1.00;;;26.30;46.00;;;;;;4981396;28;20360;-63
2023/07/14 11:12:18;;;;;;;1.48;0.95;;;26.30;46.50;;;;;;4980555;28;20033;-63
2023/07/14 11:15:17;;;;;;;1.48;0.98;;;26.40;46.00;;;;;;4982966;28;20486;-63
2023/07/14 11:17:51;;;;;;;1.52;1.00;;;26.30;46.00;;;;;;4951681;28;20031;-63
2023/07/14 11:20:55;;;;;;;1.55;0.90;;;26.30;46.00;;;;;;4971115;28;20114;-63
2023/07/14 11:23:23;;;;;;;1.67;1.08;;;26.40;46.10;;;;;;4966082;28;20032;-63
2023/07/14 11:26:11;;;;;;;1.80;1.03;;;26.30;46.00;;;;;;4981483;28;20564;-63
2023/07/14 11:29:15;;;;;;;1.80;1.05;;;26.30;46.10;;;;;;4979734;28;20057;-63
2023/07/14 11:31:49;;;;;;;1.60;1.00;;;26.30;46.00;;;;;;4964203;28;20502;-63
2023/07/14 11:34:36;;;;;;;1.30;0.98;;;26.30;46.00;;;;;;4971096;28;20030;-63
2023/07/14 11:37:45;;;;;;;1.45;0.90;;;26.40;46.10;;;;;;4979766;28;20089;-63
2023/07/14 11:40:20;;;;;;;1.70;1.00;;;26.30;46.00;;;;;;4978601;28;20372;-64
2023/07/14 11:42:55;;;;;;;1.55;0.85;;;26.30;46.10;;;;;;4980114;28;20046;-63
2023/07/14 11:45:24;;;;;;;1.65;1.00;;;26.30;46.10;;;;;;4981365;28;20034;-63
2023/07/14 11:47:50;;;;;;;1.58;1.00;;;26.30;46.10;;;;;;4979896;28;20570;-64
2023/07/14 11:50:18;;;;;;;1.30;0.90;;;26.30;46.10;;;;;;4980823;28;20459;-63
2023/07/14 11:53:18;;;;;;;1.20;0.93;;;26.40;46.20;;;;;;4964693;28;20126;-64
2023/07/14 11:55:48;;;;;;;1.67;0.90;;;26.40;46.20;;;;;;4917404;28;20506;-63
2023/07/14 11:58:30;;;;;;;1.35;0.90;;;26.30;46.10;;;;;;4965323;28;20085;-64
2023/07/14 12:01:17;;;;;;;1.98;1.00;;;26.40;46.30;;;;;;4971157;28;20031;-63
2023/07/14 12:03:56;;;;;;;1.73;1.00;;;26.40;46.40;;;;;;4981211;28;20031;-63
2023/07/14 12:06:43;;;;;;;1.70;1.10;;;26.40;46.40;;;;;;4980802;28;20478;-63
2023/07/14 12:09:13;;;;;;;1.30;0.93;;;26.40;46.50;;;;;;4961198;28;20950;-64
2023/07/14 12:11:39;;;;;;;1.70;1.00;;;26.40;46.50;;;;;;4980996;28;20097;-63
2023/07/14 12:14:35;;;;;;;1.45;0.90;;;26.40;46.40;;;;;;4980794;28;20039;-64
2023/07/14 12:17:03;;;;;;;0.82;0.80;;;26.40;46.50;;;;;;4981490;28;20574;-63
2023/07/14 12:19:49;;;;;;;1.45;0.90;;;26.40;46.40;;;;;;4979159;28;20030;-63
2023/07/14 12:22:39;;;;;;;1.20;0.90;;;26.40;46.40;;;;;;4980913;28;20034;-63
2023/07/14 12:25:15;;;;;;;1.60;0.82;;;26.40;46.50;;;;;;4980481;28;20037;-63
2023/07/14 12:27:49;;;;;;;1.10;0.80;;;26.40;46.50;;;;;;4979840;28;20508;-63
2023/07/14 12:30:28;;;;;;;1.40;0.85;;;26.40;46.50;;;;;;4980638;28;20033;-63
2023/07/14 12:33:05;;;;;;;1.20;0.90;;;26.40;46.50;;;;;;4979994;28;20488;-64
2023/07/14 12:35:32;;;;;;;1.70;1.00;;;26.40;46.50;;;;;;4980554;28;20109;-64
2023/07/14 12:38:19;;;;;;;1.45;0.93;;;26.40;46.50;;;;;;4961208;28;20039;-64
2023/07/14 12:40:47;;;;;;;1.50;0.82;;;26.40;46.50;;;;;;4977961;28;20332;-64
2023/07/14 12:43:33;;;;;;;1.80;1.00;;;26.40;46.50;;;;;;4980442;28;20041;-65
2023/07/14 12:46:01;;;;;;;1.83;0.90;;;26.40;46.60;;;;;;4981599;28;20035;-63
2023/07/14 12:48:30;;;;;;;1.38;0.85;;;26.40;46.60;;;;;;4978103;28;20146;-63
2023/07/14 12:50:56;;;;;;;1.60;0.90;;;26.40;46.60;;;;;;4979055;28;20049;-64
2023/07/14 12:53:22;;;;;;;1.60;0.90;;;26.40;46.60;;;;;;4978926;28;20392;-63
2023/07/14 12:55:47;;;;;;;1.40;0.90;;;26.40;46.60;;;;;;4976347;28;20113;-64
2023/07/14 12:58:21;;;;;;;1.27;0.90;;;26.40;46.60;;;;;;4979949;28;20405;-63
2023/07/14 13:00:55;;;;;;;1.58;0.90;;;26.40;46.60;;;;;;4978858;28;20030;-63
2023/07/14 13:03:21;;;;;;;1.75;1.00;;;26.40;46.60;;;;;;4977701;28;20541;-63
2023/07/14 13:05:48;;;;;;;1.60;1.10;;;26.40;46.60;;;;;;4980340;28;20479;-63